sim
Sign-in with your pilot id or email,
or register
Callsign
Passwort

Schedule Details

Flight Number: OEC11098
Departure: Funchal Cristiano Ronaldo Airport (LPMA) at 16:15 UTC
Arrival: Fuerteventura Airport (GCFV) at 18:47 UTC

Weather Information
Getting current METAR information for LPMA 160300Z 35004KT 310V020 9999 FEW016 FEW018TCU 14/10 Q1019
Getting current METAR information for GCFV 160300Z AUTO 27006KT 9999 NCD 13/11 Q1017

Schedule Frequency

Route Map